Time;durP1;ratioP1;P1;durP2;ratioP2;P2;SDS_P1;SDS_P2;PMS_P1;PMS_P2;Temp;Humidity;BMP_temperature;BMP_pressure;BME280_temperature;BME280_humidity;BME280_pressure;Samples;Min_cycle;Max_cycle;Signal;HPM_P1;HPM_P2
2024/02/14 00:02:22;;;;;;;5.28;4.78;;;2.70;99.90;;;;;;5049235;28;20221;-59
2024/02/14 00:04:48;;;;;;;5.15;4.75;;;2.70;99.90;;;;;;5049604;28;20214;-61
2024/02/14 00:07:15;;;;;;;11.65;5.68;;;2.80;99.90;;;;;;5049553;28;20202;-61
2024/02/14 00:09:42;;;;;;;5.65;5.25;;;2.80;99.90;;;;;;5049254;28;20230;-59
2024/02/14 00:12:11;;;;;;;6.63;6.03;;;2.80;99.90;;;;;;5049142;28;20238;-60
2024/02/14 00:14:38;;;;;;;7.22;5.78;;;2.80;99.90;;;;;;5049236;28;20206;-60
2024/02/14 00:17:07;;;;;;;5.13;4.72;;;2.80;99.90;;;;;;5049966;28;20317;-60
2024/02/14 00:19:35;;;;;;;5.70;5.20;;;2.80;99.90;;;;;;5048390;28;20639;-61
2024/02/14 00:22:02;;;;;;;5.45;5.05;;;2.80;99.90;;;;;;5049390;28;20210;-60
2024/02/14 00:24:29;;;;;;;5.10;4.70;;;2.80;99.90;;;;;;5049807;28;20210;-61
2024/02/14 00:26:56;;;;;;;5.22;4.72;;;2.80;99.90;;;;;;5049622;28;20209;-61
2024/02/14 00:29:23;;;;;;;5.50;5.00;;;2.80;99.90;;;;;;5049561;28;20694;-59
2024/02/14 00:31:50;;;;;;;5.43;4.90;;;2.80;99.90;;;;;;5049723;28;20202;-61
2024/02/14 00:34:17;;;;;;;4.45;4.15;;;2.70;99.90;;;;;;5050020;28;20668;-61
2024/02/14 00:36:46;;;;;;;4.18;3.88;;;2.80;99.90;;;;;;5049953;28;20225;-62
2024/02/14 00:39:13;;;;;;;3.75;3.45;;;2.80;99.90;;;;;;5050370;28;20567;-61
2024/02/14 00:41:40;;;;;;;5.18;4.05;;;2.70;99.90;;;;;;5049770;28;20212;-61
2024/02/14 00:44:06;;;;;;;4.45;3.72;;;2.60;99.90;;;;;;5050316;28;20333;-60
2024/02/14 00:46:33;;;;;;;4.68;4.28;;;2.60;99.90;;;;;;5049944;28;20225;-61
2024/02/14 00:49:00;;;;;;;4.25;3.85;;;2.60;99.90;;;;;;5049455;28;20209;-61
2024/02/14 00:51:27;;;;;;;4.22;3.92;;;2.60;99.90;;;;;;5049585;28;20246;-61
2024/02/14 00:53:55;;;;;;;4.25;3.78;;;2.50;99.90;;;;;;5049975;28;20569;-59
2024/02/14 00:56:23;;;;;;;4.55;4.18;;;2.50;99.90;;;;;;5049518;28;20237;-59
2024/02/14 00:58:50;;;;;;;4.10;3.80;;;2.50;99.90;;;;;;5049620;28;20225;-62
2024/02/14 01:01:17;;;;;;;5.75;3.97;;;2.40;99.90;;;;;;5048985;28;20232;-62
2024/02/14 01:03:44;;;;;;;4.28;3.05;;;2.50;99.90;;;;;;5049884;28;20264;-60
2024/02/14 01:06:11;;;;;;;4.25;3.95;;;2.50;99.90;;;;;;5049752;28;20248;-60
2024/02/14 01:08:37;;;;;;;4.13;3.72;;;2.50;99.90;;;;;;5049610;28;20241;-62
2024/02/14 01:11:06;;;;;;;4.00;3.70;;;2.50;99.90;;;;;;5049592;28;20234;-62
2024/02/14 01:13:32;;;;;;;4.07;3.78;;;2.60;99.90;;;;;;5049175;28;20210;-61
2024/02/14 01:15:59;;;;;;;4.65;4.25;;;2.60;99.90;;;;;;5049252;28;20803;-60
2024/02/14 01:18:26;;;;;;;5.18;3.85;;;2.60;99.90;;;;;;5049488;28;20305;-60
2024/02/14 01:20:53;;;;;;;6.07;4.50;;;2.60;99.90;;;;;;5041176;28;20653;-61
2024/02/14 01:23:20;;;;;;;4.38;3.97;;;2.60;99.90;;;;;;5048005;28;20210;-60
2024/02/14 01:25:47;;;;;;;4.60;4.25;;;2.70;99.90;;;;;;5047966;28;20677;-61
2024/02/14 01:28:17;;;;;;;5.07;4.57;;;2.70;99.90;;;;;;5049270;28;20210;-61
2024/02/14 01:30:44;;;;;;;4.60;4.13;;;2.80;99.90;;;;;;5048605;28;20242;-61
2024/02/14 01:33:11;;;;;;;4.80;4.35;;;2.80;99.90;;;;;;5048715;28;20248;-61
2024/02/14 01:35:37;;;;;;;3.95;3.65;;;2.80;99.90;;;;;;5048829;28;20210;-61
2024/02/14 01:38:05;;;;;;;5.00;4.50;;;2.80;99.90;;;;;;5049166;28;20297;-60
2024/02/14 01:40:32;;;;;;;5.13;4.25;;;2.90;99.90;;;;;;5048333;28;20316;-62
2024/02/14 01:43:00;;;;;;;4.65;4.25;;;2.90;99.90;;;;;;5048305;28;20701;-62
2024/02/14 01:45:29;;;;;;;16.35;6.25;;;3.00;99.90;;;;;;5049353;28;20229;-60
2024/02/14 01:47:56;;;;;;;6.57;5.63;;;3.00;99.90;;;;;;5049137;28;20583;-62
2024/02/14 01:50:28;;;;;;;6.03;5.38;;;3.00;99.90;;;;;;5048822;28;20238;-61
2024/02/14 01:52:59;;;;;;;5.85;5.35;;;3.00;99.90;;;;;;5048390;28;20590;-62
2024/02/14 01:55:27;;;;;;;6.57;5.70;;;3.10;99.90;;;;;;5048642;28;20210;-62
2024/02/14 01:57:55;;;;;;;6.43;5.45;;;3.10;99.90;;;;;;5048868;28;20234;-61
2024/02/14 02:00:21;;;;;;;6.80;6.28;;;3.10;99.90;;;;;;5048657;28;20227;-62
2024/02/14 02:02:50;;;;;;;4.82;4.50;;;3.20;99.90;;;;;;5048373;28;20209;-61
2024/02/14 02:05:17;;;;;;;6.00;5.35;;;3.20;99.90;;;;;;5048597;28;20685;-60
2024/02/14 02:07:45;;;;;;;7.40;6.25;;;3.20;99.90;;;;;;5048588;28;20767;-61
2024/02/14 02:10:12;;;;;;;6.45;5.78;;;3.30;99.90;;;;;;5048207;28;20241;-60
2024/02/14 02:12:39;;;;;;;6.50;5.05;;;3.30;99.90;;;;;;5048200;28;20222;-61
2024/02/14 02:15:07;;;;;;;6.85;4.80;;;3.30;99.90;;;;;;5048678;28;20589;-62
2024/02/14 02:17:34;;;;;;;5.75;4.35;;;3.40;99.90;;;;;;5048605;28;20234;-61
2024/02/14 02:20:02;;;;;;;5.90;4.95;;;3.40;99.90;;;;;;5048289;28;20226;-61
2024/02/14 02:22:32;;;;;;;9.63;6.35;;;3.40;99.90;;;;;;5048066;28;20206;-61
2024/02/14 02:25:00;;;;;;;6.15;5.60;;;3.50;99.90;;;;;;5048680;28;20214;-61
2024/02/14 02:27:27;;;;;;;6.72;5.00;;;3.50;99.90;;;;;;5048266;28;20229;-62
2024/02/14 02:29:54;;;;;;;5.43;5.03;;;3.50;99.90;;;;;;5048138;28;20269;-61
2024/02/14 02:32:21;;;;;;;4.95;4.55;;;3.60;99.90;;;;;;5047241;28;20678;-61
2024/02/14 02:34:48;;;;;;;7.97;7.28;;;3.60;99.90;;;;;;5047928;28;20294;-61
2024/02/14 02:37:16;;;;;;;7.38;6.68;;;3.60;99.90;;;;;;5048093;28;20600;-61
2024/02/14 02:39:43;;;;;;;6.70;6.18;;;3.60;99.90;;;;;;5048097;28;20690;-61
2024/02/14 02:42:11;;;;;;;7.30;5.95;;;3.60;99.90;;;;;;5047700;28;20955;-61
2024/02/14 02:44:39;;;;;;;6.05;5.45;;;3.70;99.90;;;;;;5048256;28;20246;-62
2024/02/14 02:47:06;;;;;;;6.80;6.10;;;3.70;99.90;;;;;;5046609;28;20275;-61
2024/02/14 02:49:33;;;;;;;7.28;6.63;;;3.70;99.90;;;;;;5048000;28;20316;-61
2024/02/14 02:52:00;;;;;;;6.88;6.25;;;3.70;99.90;;;;;;5047855;28;20228;-61
2024/02/14 02:54:26;;;;;;;8.57;6.90;;;3.70;99.90;;;;;;5051462;28;20210;-60
2024/02/14 02:56:53;;;;;;;6.90;6.50;;;3.80;99.90;;;;;;5051978;28;20704;-62
2024/02/14 02:59:21;;;;;;;6.50;5.85;;;3.80;99.90;;;;;;5051745;28;20221;-62
2024/02/14 03:01:49;;;;;;;6.75;6.15;;;3.80;99.90;;;;;;5051739;28;20210;-60
2024/02/14 03:04:16;;;;;;;8.48;7.68;;;3.90;99.90;;;;;;5052014;28;20214;-62
2024/02/14 03:06:45;;;;;;;8.57;6.70;;;3.90;99.90;;;;;;5051884;28;20590;-61
2024/02/14 03:09:12;;;;;;;7.82;7.22;;;3.90;99.90;;;;;;5051394;28;20206;-62
2024/02/14 03:11:39;;;;;;;6.93;6.22;;;3.90;99.90;;;;;;5051265;28;20212;-60
2024/02/14 03:14:07;;;;;;;9.02;8.23;;;4.00;99.90;;;;;;5051665;28;20218;-60
2024/02/14 03:16:37;;;;;;;7.00;6.28;;;4.00;99.90;;;;;;5051824;28;20279;-61
2024/02/14 03:19:04;;;;;;;7.53;6.82;;;4.00;99.90;;;;;;5051675;28;20693;-61
2024/02/14 03:21:32;;;;;;;7.70;6.88;;;4.00;99.90;;;;;;5051219;28;20202;-59
2024/02/14 03:23:59;;;;;;;7.15;6.60;;;4.10;99.90;;;;;;5051861;28;20720;-61
2024/02/14 03:26:26;;;;;;;7.32;6.72;;;4.10;99.90;;;;;;5051791;28;20293;-61
2024/02/14 03:28:54;;;;;;;7.70;7.00;;;4.10;99.90;;;;;;5051737;28;20923;-61
2024/02/14 03:31:21;;;;;;;8.48;6.50;;;4.10;99.90;;;;;;5050849;28;20245;-62
2024/02/14 03:33:49;;;;;;;7.22;6.55;;;4.10;99.90;;;;;;5051652;28;20711;-62
2024/02/14 03:36:16;;;;;;;8.00;7.40;;;4.20;99.90;;;;;;5051190;28;20744;-60
2024/02/14 03:38:43;;;;;;;7.28;6.07;;;4.20;99.90;;;;;;5051031;28;20211;-62
2024/02/14 03:41:08;;;;;;;8.75;6.60;;;4.20;99.90;;;;;;5051079;28;20754;-61
2024/02/14 03:43:36;;;;;;;6.93;6.10;;;4.20;99.90;;;;;;5050942;28;20210;-61
2024/02/14 03:46:03;;;;;;;6.97;6.28;;;4.30;99.90;;;;;;5050330;28;20489;-60
2024/02/14 03:48:29;;;;;;;7.35;6.65;;;4.30;99.90;;;;;;5051055;28;20705;-62
2024/02/14 03:50:58;;;;;;;8.48;6.90;;;4.30;99.90;;;;;;5050987;28;20736;-61
2024/02/14 03:53:24;;;;;;;7.45;6.75;;;4.30;99.90;;;;;;5050531;28;20217;-61
2024/02/14 03:55:52;;;;;;;7.85;7.18;;;4.30;99.90;;;;;;5051153;28;20210;-60
2024/02/14 03:58:22;;;;;;;8.98;7.68;;;4.30;99.90;;;;;;5050733;28;20234;-61
2024/02/14 04:00:50;;;;;;;6.97;6.38;;;4.30;99.90;;;;;;5050150;28;20345;-61
2024/02/14 04:03:17;;;;;;;7.20;6.60;;;4.30;99.90;;;;;;5050224;28;20211;-61
2024/02/14 04:05:44;;;;;;;7.35;6.72;;;4.30;99.90;;;;;;5050376;28;20217;-61
2024/02/14 04:08:13;;;;;;;6.03;5.53;;;4.30;99.90;;;;;;5051014;28;20676;-61
2024/02/14 04:10:40;;;;;;;9.00;6.93;;;4.30;99.90;;;;;;5050477;28;20235;-61
2024/02/14 04:13:07;;;;;;;6.90;5.80;;;4.40;99.90;;;;;;5050265;28;20309;-62
2024/02/14 04:15:34;;;;;;;6.38;5.78;;;4.40;99.90;;;;;;5050556;28;20217;-61
2024/02/14 04:18:02;;;;;;;6.15;5.65;;;4.40;99.90;;;;;;5050574;28;20226;-61
2024/02/14 04:20:30;;;;;;;6.25;4.72;;;4.40;99.90;;;;;;5050170;28;20265;-61
2024/02/14 04:22:58;;;;;;;6.18;5.57;;;4.40;99.90;;;;;;5050257;28;20210;-61
2024/02/14 04:25:26;;;;;;;5.30;4.82;;;4.50;99.90;;;;;;5050369;28;20689;-59
2024/02/14 04:27:53;;;;;;;7.82;5.85;;;4.50;99.90;;;;;;5049476;28;20241;-61
2024/02/14 04:30:20;;;;;;;3.80;3.50;;;4.50;99.90;;;;;;5065307;22;20242;-62
2024/02/14 04:32:47;;;;;;;14.73;5.82;;;4.50;99.90;;;;;;5029378;28;20235;-64
2024/02/14 04:35:14;;;;;;;7.30;6.60;;;4.60;99.90;;;;;;5030450;28;20236;-61
2024/02/14 04:37:43;;;;;;;8.25;6.15;;;4.60;99.90;;;;;;5027670;28;20617;-62
2024/02/14 04:40:10;;;;;;;3.80;3.50;;;4.60;99.90;;;;;;5030136;28;20203;-62
2024/02/14 04:42:38;;;;;;;3.53;2.72;;;4.60;99.90;;;;;;5029700;28;20213;-61
2024/02/14 04:45:06;;;;;;;5.65;4.90;;;4.70;99.90;;;;;;5030319;28;20215;-62
2024/02/14 04:47:33;;;;;;;5.43;4.63;;;4.70;99.90;;;;;;5030154;28;20298;-62
2024/02/14 04:50:03;;;;;;;6.25;5.75;;;4.70;99.90;;;;;;5029896;28;20207;-62
2024/02/14 04:52:31;;;;;;;7.10;6.35;;;4.70;99.90;;;;;;5029811;28;20237;-61
2024/02/14 04:54:57;;;;;;;6.10;5.60;;;4.70;99.90;;;;;;5029866;28;20211;-61
2024/02/14 04:57:25;;;;;;;5.47;4.97;;;4.70;99.90;;;;;;5029891;28;20258;-61
2024/02/14 04:59:53;;;;;;;3.95;3.08;;;4.70;99.90;;;;;;5029895;28;20217;-62
2024/02/14 05:02:20;;;;;;;4.95;4.43;;;4.80;99.90;;;;;;5029612;28;20342;-62
2024/02/14 05:04:47;;;;;;;9.52;6.82;;;4.80;99.90;;;;;;5029955;28;20301;-61
2024/02/14 05:07:15;;;;;;;6.25;5.75;;;4.80;99.90;;;;;;5029600;28;20221;-61
2024/02/14 05:09:44;;;;;;;6.10;5.50;;;4.80;99.90;;;;;;5029612;28;20214;-61
2024/02/14 05:12:11;;;;;;;6.18;5.70;;;4.80;99.90;;;;;;5029113;28;20237;-61
2024/02/14 05:14:40;;;;;;;7.00;5.82;;;4.80;99.90;;;;;;5029616;28;20214;-61
2024/02/14 05:17:08;;;;;;;6.53;5.85;;;4.80;99.90;;;;;;5028636;28;20870;-62
2024/02/14 05:19:35;;;;;;;5.40;4.78;;;4.80;99.90;;;;;;5029475;28;20211;-61
2024/02/14 05:22:02;;;;;;;6.65;5.28;;;4.90;99.90;;;;;;5029106;28;20227;-61
2024/02/14 05:24:29;;;;;;;8.95;6.68;;;4.90;99.90;;;;;;5029424;28;20215;-62
2024/02/14 05:26:56;;;;;;;5.93;5.43;;;4.90;99.90;;;;;;5029476;28;20275;-62
2024/02/14 05:29:23;;;;;;;5.00;4.50;;;4.90;99.90;;;;;;5029190;28;20210;-61
2024/02/14 05:31:52;;;;;;;4.80;4.50;;;5.00;99.90;;;;;;5028783;28;20238;-62
2024/02/14 05:34:20;;;;;;;6.25;4.97;;;5.00;99.90;;;;;;5029622;28;20427;-61
2024/02/14 05:36:46;;;;;;;6.22;4.90;;;5.00;99.90;;;;;;5029707;28;20215;-60
2024/02/14 05:39:14;;;;;;;4.80;4.17;;;5.00;99.90;;;;;;5029230;28;20759;-61
2024/02/14 05:41:41;;;;;;;4.43;4.03;;;5.10;99.90;;;;;;5028694;28;20238;-62
2024/02/14 05:44:07;;;;;;;5.13;3.65;;;5.10;99.90;;;;;;5029114;28;20306;-62
2024/02/14 05:46:34;;;;;;;3.70;3.40;;;5.10;99.90;;;;;;5029326;28;20754;-62
2024/02/14 05:49:01;;;;;;;3.95;3.67;;;5.10;99.90;;;;;;5028938;28;20217;-62
2024/02/14 05:51:29;;;;;;;5.20;4.45;;;5.10;99.90;;;;;;5028528;28;20620;-61
2024/02/14 05:53:56;;;;;;;4.63;3.63;;;5.20;99.90;;;;;;5028961;28;20266;-62
2024/02/14 05:56:23;;;;;;;6.07;3.55;;;5.10;99.90;;;;;;5028677;28;20217;-60
2024/02/14 05:58:50;;;;;;;7.45;4.72;;;5.20;99.90;;;;;;5028783;28;20230;-62
2024/02/14 06:01:17;;;;;;;5.40;4.88;;;5.20;99.90;;;;;;5028510;28;20234;-61
2024/02/14 06:03:44;;;;;;;5.70;5.20;;;5.20;99.90;;;;;;5028804;28;20214;-62
2024/02/14 06:06:11;;;;;;;6.45;4.10;;;5.20;99.90;;;;;;5028842;28;20221;-61
2024/02/14 06:08:39;;;;;;;3.63;3.20;;;5.20;99.90;;;;;;5028917;28;20565;-61
2024/02/14 06:11:06;;;;;;;3.65;3.05;;;5.20;99.90;;;;;;5028744;28;20322;-61
2024/02/14 06:13:33;;;;;;;4.75;4.43;;;5.30;99.90;;;;;;5028085;28;20696;-62
2024/02/14 06:15:59;;;;;;;4.03;3.83;;;5.30;99.90;;;;;;5028678;28;20203;-61
2024/02/14 06:18:26;;;;;;;3.70;3.40;;;5.30;99.90;;;;;;5028472;28;20241;-62
2024/02/14 06:20:53;;;;;;;5.50;5.00;;;5.30;99.90;;;;;;5028462;28;20245;-62
2024/02/14 06:23:20;;;;;;;5.88;5.20;;;5.30;99.90;;;;;;5028167;28;20256;-62
2024/02/14 06:25:48;;;;;;;7.63;3.47;;;5.30;99.90;;;;;;5028439;28;20222;-62
2024/02/14 06:28:15;;;;;;;3.70;3.40;;;5.30;99.90;;;;;;5028247;28;20306;-62
2024/02/14 06:30:42;;;;;;;3.45;3.25;;;5.40;99.90;;;;;;5028263;28;20245;-61
2024/02/14 06:33:08;;;;;;;4.80;3.83;;;5.40;99.90;;;;;;5027921;28;20211;-62
2024/02/14 06:35:35;;;;;;;4.47;2.80;;;5.40;99.90;;;;;;5028571;28;20218;-62
2024/02/14 06:38:02;;;;;;;3.13;2.85;;;5.40;99.90;;;;;;5028322;28;20227;-61
2024/02/14 06:40:29;;;;;;;4.18;3.38;;;5.40;99.90;;;;;;5028300;28;20257;-61
2024/02/14 06:42:58;;;;;;;9.13;4.15;;;5.40;99.90;;;;;;5028331;28;20222;-61
2024/02/14 06:45:24;;;;;;;3.13;2.92;;;5.50;99.90;;;;;;5028545;28;20325;-61
2024/02/14 06:47:51;;;;;;;3.08;2.78;;;5.50;99.90;;;;;;5028222;28;20301;-62
2024/02/14 06:50:18;;;;;;;3.50;3.20;;;5.50;99.90;;;;;;5028044;28;20623;-61
2024/02/14 06:52:45;;;;;;;6.15;3.40;;;5.60;99.90;;;;;;5027636;28;20215;-62
2024/02/14 06:55:12;;;;;;;3.30;3.03;;;5.60;99.90;;;;;;5028462;28;20215;-61
2024/02/14 06:57:40;;;;;;;4.22;3.92;;;5.60;99.90;;;;;;5028159;28;20253;-62
2024/02/14 07:00:10;;;;;;;5.32;4.72;;;5.60;99.90;;;;;;5027797;28;20217;-61
2024/02/14 07:02:36;;;;;;;4.45;2.95;;;5.70;99.90;;;;;;5027631;28;20261;-61
2024/02/14 07:05:04;;;;;;;6.28;3.53;;;5.70;99.90;;;;;;5028062;28;20211;-62
2024/02/14 07:07:31;;;;;;;4.47;3.55;;;5.70;99.90;;;;;;5028092;28;20210;-62
2024/02/14 07:09:57;;;;;;;4.50;2.95;;;5.80;99.90;;;;;;5028274;28;20237;-62
2024/02/14 07:12:25;;;;;;;4.65;2.95;;;5.80;99.90;;;;;;5027759;28;20237;-62
2024/02/14 07:14:52;;;;;;;2.90;2.70;;;5.90;99.90;;;;;;5028344;28;20306;-62
2024/02/14 07:17:20;;;;;;;4.30;3.92;;;5.90;99.90;;;;;;5028206;28;20215;-62
2024/02/14 07:19:49;;;;;;;3.03;2.75;;;6.00;99.90;;;;;;5027719;28;20241;-62
2024/02/14 07:22:18;;;;;;;5.32;3.30;;;6.00;99.90;;;;;;5027481;28;20297;-62
2024/02/14 07:24:46;;;;;;;4.60;3.45;;;6.00;99.90;;;;;;5028044;28;20219;-62
2024/02/14 07:27:13;;;;;;;7.32;3.92;;;6.10;99.90;;;;;;5027824;28;20239;-61
2024/02/14 07:29:40;;;;;;;7.00;3.72;;;6.20;99.90;;;;;;5026940;28;20430;-62
2024/02/14 07:32:07;;;;;;;6.18;3.42;;;6.20;99.90;;;;;;5025995;28;20262;-61
2024/02/14 07:34:39;;;;;;;2.60;2.40;;;6.20;99.90;;;;;;5024886;28;20209;-62
2024/02/14 07:37:05;;;;;;;5.65;3.08;;;6.30;99.90;;;;;;5027673;28;20207;-62
2024/02/14 07:39:34;;;;;;;3.58;3.22;;;6.40;99.90;;;;;;5029282;28;20230;-61
2024/02/14 07:42:01;;;;;;;4.97;3.00;;;6.40;99.90;;;;;;5030939;28;20599;-61
2024/02/14 07:44:28;;;;;;;5.28;2.95;;;6.60;99.90;;;;;;5031660;28;20215;-62
2024/02/14 07:46:55;;;;;;;6.60;2.65;;;6.60;99.90;;;;;;5031498;28;20211;-62
2024/02/14 07:49:21;;;;;;;3.15;2.90;;;6.70;99.90;;;;;;5031422;28;20214;-62
2024/02/14 07:51:50;;;;;;;2.53;2.33;;;6.80;99.90;;;;;;5030520;28;20237;-61
2024/02/14 07:54:16;;;;;;;9.38;3.92;;;6.80;99.90;;;;;;5031301;28;20302;-62
2024/02/14 07:56:43;;;;;;;2.42;2.28;;;6.90;99.90;;;;;;5031112;28;20595;-62
2024/02/14 07:59:10;;;;;;;6.72;2.80;;;7.00;99.90;;;;;;5030854;28;20233;-62
2024/02/14 08:01:37;;;;;;;2.83;2.63;;;7.00;99.90;;;;;;5030298;28;20879;-62
2024/02/14 08:04:04;;;;;;;3.17;2.83;;;7.10;99.90;;;;;;5031136;28;20230;-61
2024/02/14 08:06:31;;;;;;;2.85;2.65;;;7.10;99.90;;;;;;5030700;28;20242;-62
2024/02/14 08:09:02;;;;;;;4.72;2.88;;;7.20;99.90;;;;;;5030642;28;20203;-62
2024/02/14 08:11:29;;;;;;;2.58;2.38;;;7.20;99.90;;;;;;5030415;28;20686;-62
2024/02/14 08:13:55;;;;;;;4.93;4.28;;;7.20;99.90;;;;;;5030773;28;20317;-61
2024/02/14 08:16:22;;;;;;;3.00;2.70;;;7.30;99.90;;;;;;5030906;28;20744;-62
2024/02/14 08:18:50;;;;;;;18.60;5.40;;;7.30;99.90;;;;;;5031015;28;21058;-62
2024/02/14 08:21:17;;;;;;;3.05;2.70;;;7.40;99.90;;;;;;5030450;28;20284;-62
2024/02/14 08:23:44;;;;;;;3.72;2.40;;;7.40;99.90;;;;;;5030804;28;20215;-62
2024/02/14 08:26:12;;;;;;;6.47;2.90;;;7.50;99.90;;;;;;5030577;28;20215;-62
2024/02/14 08:28:40;;;;;;;7.38;3.58;;;7.50;99.90;;;;;;5029698;28;20199;-62
2024/02/14 08:31:11;;;;;;;3.42;2.30;;;7.60;99.90;;;;;;5029913;28;20306;-62
2024/02/14 08:33:38;;;;;;;2.92;2.67;;;7.60;99.90;;;;;;5030029;28;20203;-62
2024/02/14 08:36:06;;;;;;;6.68;2.80;;;7.60;99.90;;;;;;5029986;28;20203;-62
2024/02/14 08:38:34;;;;;;;4.00;2.35;;;7.70;99.90;;;;;;5025210;28;20634;-62
2024/02/14 08:41:01;;;;;;;3.30;3.00;;;7.70;99.90;;;;;;5023766;28;20255;-62
2024/02/14 08:43:29;;;;;;;3.70;2.70;;;7.70;99.90;;;;;;5021045;28;20206;-61
2024/02/14 08:45:56;;;;;;;3.35;3.05;;;7.80;99.90;;;;;;5028825;28;20305;-62
2024/02/14 08:48:24;;;;;;;5.15;2.40;;;7.80;99.90;;;;;;5025657;28;20234;-62
2024/02/14 08:50:51;;;;;;;3.08;2.53;;;7.80;99.90;;;;;;5015896;28;20238;-62
2024/02/14 08:53:18;;;;;;;4.68;3.03;;;7.80;99.90;;;;;;5011191;28;20211;-62
2024/02/14 08:55:45;;;;;;;3.67;2.65;;;7.80;99.90;;;;;;5021810;28;20261;-62
2024/02/14 08:58:12;;;;;;;2.35;2.15;;;7.90;99.90;;;;;;5024940;28;20208;-62
2024/02/14 09:00:40;;;;;;;3.40;3.10;;;7.90;99.90;;;;;;5025943;28;20219;-61
2024/02/14 09:03:07;;;;;;;5.47;3.58;;;8.00;99.90;;;;;;5015204;28;20231;-62
2024/02/14 09:05:34;;;;;;;3.20;2.50;;;8.10;99.90;;;;;;5019163;28;20213;-62
2024/02/14 09:08:01;;;;;;;4.57;2.83;;;8.20;99.90;;;;;;5029592;28;20693;-61
2024/02/14 09:10:28;;;;;;;3.30;2.80;;;8.20;99.90;;;;;;5029310;28;20241;-62
2024/02/14 09:12:55;;;;;;;3.65;2.55;;;8.30;99.90;;;;;;5020565;28;20239;-61
2024/02/14 09:15:22;;;;;;;7.63;3.55;;;8.40;99.90;;;;;;5021199;28;20334;-62
2024/02/14 09:17:51;;;;;;;13.98;7.88;;;8.40;99.90;;;;;;5029322;28;20239;-62
2024/02/14 09:20:20;;;;;;;4.93;3.15;;;8.40;99.90;;;;;;5023351;28;20227;-62
2024/02/14 09:22:46;;;;;;;3.20;2.40;;;8.50;99.90;;;;;;5018389;28;20277;-62
2024/02/14 09:25:13;;;;;;;3.92;3.15;;;8.50;99.90;;;;;;5029557;28;20583;-62
2024/02/14 09:27:41;;;;;;;2.85;2.42;;;8.50;99.90;;;;;;5022446;28;20245;-62
2024/02/14 09:30:08;;;;;;;3.50;2.47;;;8.50;99.90;;;;;;5018509;28;20294;-62
2024/02/14 09:32:35;;;;;;;3.92;2.25;;;8.60;99.90;;;;;;5028252;28;20245;-62
2024/02/14 09:35:06;;;;;;;3.40;3.05;;;8.60;99.90;;;;;;5021270;28;20218;-62
2024/02/14 09:37:33;;;;;;;3.25;3.00;;;8.60;99.90;;;;;;5012437;28;20231;-61
2024/02/14 09:40:00;;;;;;;3.45;3.25;;;8.60;99.90;;;;;;5015218;28;20227;-62
2024/02/14 09:42:38;;;;;;;5.47;3.03;;;8.70;99.90;;;;;;5009821;28;20792;-62
2024/02/14 09:45:07;;;;;;;3.53;2.65;;;8.70;99.90;;;;;;5019001;28;20287;-62
2024/02/14 09:47:34;;;;;;;41.63;9.25;;;8.80;99.90;;;;;;5017496;28;20208;-62
2024/02/14 09:50:04;;;;;;;9.95;4.78;;;8.80;99.90;;;;;;5013448;28;20200;-60
2024/02/14 09:52:33;;;;;;;5.57;3.08;;;8.90;99.90;;;;;;5026954;28;20211;-61
2024/02/14 09:55:02;;;;;;;2.85;2.25;;;9.00;99.90;;;;;;5008286;28;20631;-62
2024/02/14 09:57:30;;;;;;;2.42;2.25;;;9.00;99.90;;;;;;5020015;28;20214;-62
2024/02/14 09:59:58;;;;;;;2.90;2.70;;;9.00;99.90;;;;;;5013870;28;20234;-62
2024/02/14 10:02:25;;;;;;;3.67;2.40;;;9.10;99.90;;;;;;5013215;28;20274;-62
2024/02/14 10:04:51;;;;;;;4.65;2.88;;;9.10;99.90;;;;;;5021509;28;20462;-61
2024/02/14 10:07:20;;;;;;;3.15;2.10;;;9.20;99.90;;;;;;5028058;28;20215;-62
2024/02/14 10:09:47;;;;;;;3.47;2.83;;;9.30;99.90;;;;;;5027344;28;20674;-62
2024/02/14 10:12:14;;;;;;;2.83;2.43;;;9.30;99.90;;;;;;5027301;28;20878;-62
2024/02/14 10:14:42;;;;;;;2.30;2.10;;;9.40;99.90;;;;;;5028175;28;20450;-61
2024/02/14 10:17:09;;;;;;;3.00;2.60;;;9.30;99.90;;;;;;5017738;28;20463;-62
2024/02/14 10:19:36;;;;;;;6.30;2.70;;;9.30;99.90;;;;;;5016847;28;20497;-62
2024/02/14 10:22:05;;;;;;;4.17;2.73;;;9.40;99.90;;;;;;5026683;28;20476;-62
2024/02/14 10:24:33;;;;;;;4.55;2.67;;;9.40;99.90;;;;;;5028388;28;20450;-62
2024/02/14 10:27:00;;;;;;;4.10;3.33;;;9.50;99.90;;;;;;5027229;28;20677;-62
2024/02/14 10:29:28;;;;;;;6.07;3.00;;;9.50;99.90;;;;;;5027870;28;20442;-62
2024/02/14 10:31:55;;;;;;;2.47;2.13;;;9.60;99.90;;;;;;5049508;22;20599;-61
2024/02/14 10:34:26;;;;;;;3.30;2.80;;;9.70;99.90;;;;;;5028101;28;20449;-60
2024/02/14 10:36:54;;;;;;;2.70;2.40;;;9.70;99.90;;;;;;5028032;28;20549;-59
2024/02/14 10:39:22;;;;;;;3.03;2.60;;;9.80;99.90;;;;;;5027605;28;20481;-61
2024/02/14 10:41:50;;;;;;;2.57;2.37;;;9.80;99.90;;;;;;5027032;28;21078;-62
2024/02/14 10:44:18;;;;;;;1.63;1.53;;;9.80;99.90;;;;;;5028159;28;21044;-62
2024/02/14 10:46:47;;;;;;;3.03;2.40;;;9.80;99.90;;;;;;5027870;28;20460;-62
2024/02/14 10:49:16;;;;;;;2.63;2.07;;;9.90;99.90;;;;;;5026937;28;20466;-62
2024/02/14 10:51:48;;;;;;;3.07;2.13;;;9.90;99.90;;;;;;5026921;28;20465;-62
2024/02/14 10:54:17;;;;;;;6.70;2.53;;;9.90;99.90;;;;;;5027916;28;20446;-62
2024/02/14 10:56:49;;;;;;;3.30;2.73;;;10.00;99.90;;;;;;5028366;28;20453;-62
2024/02/14 10:59:20;;;;;;;4.13;3.57;;;10.00;99.90;;;;;;5027994;28;20581;-62
2024/02/14 11:01:48;;;;;;;2.53;2.17;;;10.10;99.90;;;;;;5006741;28;20475;-62
2024/02/14 11:04:15;;;;;;;4.27;2.27;;;10.00;99.90;;;;;;5005343;28;20453;-62
2024/02/14 11:06:48;;;;;;;3.23;2.47;;;10.10;99.90;;;;;;5027440;28;20545;-62
2024/02/14 11:09:16;;;;;;;2.90;2.70;;;10.10;99.90;;;;;;5027105;28;20453;-61
2024/02/14 11:11:44;;;;;;;2.73;2.53;;;10.20;99.90;;;;;;5026818;28;20492;-62
2024/02/14 11:14:12;;;;;;;3.20;2.97;;;10.20;99.90;;;;;;5028398;28;21284;-62
2024/02/14 11:16:42;;;;;;;3.90;2.30;;;10.30;99.90;;;;;;5031217;28;20460;-61
2024/02/14 11:19:10;;;;;;;4.13;3.30;;;10.30;99.90;;;;;;5027277;28;21022;-62
2024/02/14 11:21:38;;;;;;;3.00;2.27;;;10.40;99.90;;;;;;5030031;28;20476;-62
2024/02/14 11:24:07;;;;;;;2.77;2.47;;;10.50;99.90;;;;;;5030976;28;20460;-60
2024/02/14 11:26:47;;;;;;;2.30;2.10;;;10.60;99.90;;;;;;5031249;28;20454;-60
2024/02/14 11:29:17;;;;;;;1.80;1.70;;;10.70;99.90;;;;;;5030767;28;20902;-62
2024/02/14 11:31:45;;;;;;;3.00;2.67;;;10.70;99.90;;;;;;5030449;28;20473;-62
2024/02/14 11:34:13;;;;;;;1.87;1.77;;;10.70;99.90;;;;;;5030807;28;20532;-62
2024/02/14 11:36:42;;;;;;;1.80;1.70;;;10.70;99.90;;;;;;5030750;28;20455;-62
2024/02/14 11:39:09;;;;;;;1.63;1.27;;;10.80;99.90;;;;;;5030380;28;20493;-60
2024/02/14 11:41:37;;;;;;;1.50;1.40;;;10.90;99.90;;;;;;5029831;28;20968;-62
2024/02/14 11:44:05;;;;;;;4.10;3.17;;;11.00;99.90;;;;;;5029523;28;20461;-62
2024/02/14 11:46:33;;;;;;;2.13;1.63;;;11.00;99.90;;;;;;5029453;28;20544;-62
2024/02/14 11:49:03;;;;;;;2.93;1.20;;;11.10;99.90;;;;;;5030114;28;20450;-60
2024/02/14 11:51:31;;;;;;;1.40;1.30;;;11.10;99.90;;;;;;5029789;28;20557;-61
2024/02/14 11:54:04;;;;;;;1.60;1.50;;;11.10;99.90;;;;;;5030466;28;20469;-63
2024/02/14 11:56:33;;;;;;;2.20;1.87;;;11.10;99.90;;;;;;5030391;28;20453;-61
2024/02/14 11:59:03;;;;;;;5.00;2.20;;;11.10;99.90;;;;;;5020724;28;20476;-60
2024/02/14 12:01:32;;;;;;;2.90;1.50;;;11.20;99.90;;;;;;5026982;28;20484;-61
2024/02/14 12:04:00;;;;;;;3.10;1.73;;;11.30;99.90;;;;;;5026048;28;20553;-60
2024/02/14 12:06:31;;;;;;;2.00;1.50;;;11.30;99.90;;;;;;5028560;28;20449;-59
2024/02/14 12:09:01;;;;;;;1.60;1.10;;;11.40;99.90;;;;;;5023011;28;20461;-62
2024/02/14 12:11:28;;;;;;;2.70;1.77;;;11.50;99.90;;;;;;5016099;28;20465;-61
2024/02/14 12:13:56;;;;;;;1.43;1.27;;;11.60;99.90;;;;;;5021965;28;20458;-61
2024/02/14 12:16:23;;;;;;;1.70;1.33;;;11.60;99.90;;;;;;5019436;28;20886;-61
2024/02/14 12:18:49;;;;;;;1.87;1.20;;;11.60;99.90;;;;;;5015278;28;20458;-61
2024/02/14 12:21:16;;;;;;;1.70;1.60;;;11.60;99.90;;;;;;5010322;28;20496;-62
2024/02/14 12:23:44;;;;;;;3.60;1.30;;;11.70;99.90;;;;;;5020451;28;20453;-62
2024/02/14 12:26:17;;;;;;;1.60;1.50;;;11.60;99.90;;;;;;5019492;28;20538;-60
2024/02/14 12:28:47;;;;;;;3.40;2.20;;;11.50;99.90;;;;;;5016788;28;20463;-62
2024/02/14 12:31:23;;;;;;;2.27;2.17;;;11.50;99.90;;;;;;5015501;28;20476;-61
2024/02/14 12:33:49;;;;;;;3.57;2.77;;;11.40;99.90;;;;;;5021041;28;20457;-61
2024/02/14 12:36:16;;;;;;;2.57;2.40;;;11.40;99.90;;;;;;5018825;28;20449;-61
2024/02/14 12:38:45;;;;;;;3.03;2.83;;;11.20;99.90;;;;;;5025309;28;21127;-62
2024/02/14 12:41:12;;;;;;;6.00;3.10;;;11.10;99.90;;;;;;5015272;28;20909;-62
2024/02/14 12:43:39;;;;;;;3.30;3.00;;;11.00;99.90;;;;;;5025271;28;20955;-63
2024/02/14 12:46:06;;;;;;;3.00;2.53;;;11.00;99.90;;;;;;5023474;28;20451;-61
2024/02/14 12:48:33;;;;;;;2.30;2.20;;;10.90;99.90;;;;;;5014221;28;20819;-61
2024/02/14 12:51:00;;;;;;;2.57;2.40;;;10.80;99.90;;;;;;5016450;28;20908;-61
2024/02/14 12:53:26;;;;;;;6.43;3.30;;;10.60;99.90;;;;;;5026257;28;20466;-61
2024/02/14 12:55:55;;;;;;;3.00;2.80;;;10.60;99.90;;;;;;5016367;28;20453;-61
2024/02/14 12:58:22;;;;;;;5.17;3.40;;;10.60;99.90;;;;;;5017964;28;20455;-61